Main page
METAR-TAF:

METAR-TAF

Airports :

RAF Scampton

Scampton, England

latitude: 53-18-27N, longitude: 000-33-03W, elevation: 62 m

Current weather observation

The report was made 1 hour and 17 minutes ago, at 07:50 UTC
Wind 12 kt from the West/Southwest
Temperature 15°C
Humidity 88%
Pressure 1025 hPa
Visibility 10 km or more

METAR: EGXP 210750Z AUTO 24012KT 9999 // NCD 15/13 Q1025

Time: 10:07 (09:07 UTC)


TAF: missing

Weather observations and forecasts of more than 4000 airports (METAR and TAF reports).

The available stations are represented by yellow and red dots on the map.

Hover mouse over dot to see the name of the station.

Then click to see weather observations and forecasts.

To change the map : click on the green buttons with a black cross to zoom in, on the green button with a dash to zoom out, or on the green arrows for adjacent maps.


METAR-TAF: